sensor_id;sensor_type;location;lat;lon;timestamp;temperature;humidity
34492;DHT22;20737;49.908;8.126;2022-09-13T00:00:40;13.80;99.90
34492;DHT22;20737;49.908;8.126;2022-09-13T00:03:08;13.80;99.90
34492;DHT22;20737;49.908;8.126;2022-09-13T00:05:36;13.80;99.90
34492;DHT22;20737;49.908;8.126;2022-09-13T00:08:03;13.70;99.90
34492;DHT22;20737;49.908;8.126;2022-09-13T00:10:30;13.70;99.90
34492;DHT22;20737;49.908;8.126;2022-09-13T00:12:58;13.70;99.90
34492;DHT22;20737;49.908;8.126;2022-09-13T00:15:27;13.70;99.90
34492;DHT22;20737;49.908;8.126;2022-09-13T00:17:54;13.60;99.90
34492;DHT22;20737;49.908;8.126;2022-09-13T00:20:21;13.60;99.90
34492;DHT22;20737;49.908;8.126;2022-09-13T00:22:48;13.60;99.90
34492;DHT22;20737;49.908;8.126;2022-09-13T00:25:15;13.60;99.90
34492;DHT22;20737;49.908;8.126;2022-09-13T00:27:42;13.50;99.90
34492;DHT22;20737;49.908;8.126;2022-09-13T00:30:10;13.50;99.90
34492;DHT22;20737;49.908;8.126;2022-09-13T00:32:39;13.40;99.90
34492;DHT22;20737;49.908;8.126;2022-09-13T00:35:06;13.40;99.90
34492;DHT22;20737;49.908;8.126;2022-09-13T00:37:33;13.40;99.90
34492;DHT22;20737;49.908;8.126;2022-09-13T00:40:00;13.40;99.90
34492;DHT22;20737;49.908;8.126;2022-09-13T00:42:29;13.40;99.90
34492;DHT22;20737;49.908;8.126;2022-09-13T00:44:58;13.30;99.90
34492;DHT22;20737;49.908;8.126;2022-09-13T00:47:32;13.40;99.90
34492;DHT22;20737;49.908;8.126;2022-09-13T00:50:06;13.30;99.90
34492;DHT22;20737;49.908;8.126;2022-09-13T00:52:37;13.30;99.90
34492;DHT22;20737;49.908;8.126;2022-09-13T00:55:07;13.30;99.90
34492;DHT22;20737;49.908;8.126;2022-09-13T00:57:38;13.30;99.90
34492;DHT22;20737;49.908;8.126;2022-09-13T01:00:09;13.20;99.90
34492;DHT22;20737;49.908;8.126;2022-09-13T01:02:39;13.20;99.90
34492;DHT22;20737;49.908;8.126;2022-09-13T01:05:08;13.20;99.90
34492;DHT22;20737;49.908;8.126;2022-09-13T01:07:36;13.10;99.90
34492;DHT22;20737;49.908;8.126;2022-09-13T01:10:05;13.10;99.90
34492;DHT22;20737;49.908;8.126;2022-09-13T01:12:36;13.10;99.90
34492;DHT22;20737;49.908;8.126;2022-09-13T01:15:05;13.10;99.90
34492;DHT22;20737;49.908;8.126;2022-09-13T01:17:33;13.10;99.90
34492;DHT22;20737;49.908;8.126;2022-09-13T01:20:01;13.00;99.90
34492;DHT22;20737;49.908;8.126;2022-09-13T01:22:57;13.10;99.90
34492;DHT22;20737;49.908;8.126;2022-09-13T01:25:53;12.90;99.90
34492;DHT22;20737;49.908;8.126;2022-09-13T01:28:47;12.90;99.90
34492;DHT22;20737;49.908;8.126;2022-09-13T01:31:26;12.80;99.90
34492;DHT22;20737;49.908;8.126;2022-09-13T01:34:07;12.90;99.90
34492;DHT22;20737;49.908;8.126;2022-09-13T01:36:48;12.80;99.90
34492;DHT22;20737;49.908;8.126;2022-09-13T01:39:31;12.80;99.90
34492;DHT22;20737;49.908;8.126;2022-09-13T01:42:10;12.80;99.90
34492;DHT22;20737;49.908;8.126;2022-09-13T01:44:57;12.80;99.90
34492;DHT22;20737;49.908;8.126;2022-09-13T01:47:30;12.80;99.90
34492;DHT22;20737;49.908;8.126;2022-09-13T01:50:10;12.70;99.90
34492;DHT22;20737;49.908;8.126;2022-09-13T01:52:43;12.80;99.90
34492;DHT22;20737;49.908;8.126;2022-09-13T01:55:25;12.70;99.90
34492;DHT22;20737;49.908;8.126;2022-09-13T01:58:00;12.70;99.90
34492;DHT22;20737;49.908;8.126;2022-09-13T02:00:34;12.70;99.90
34492;DHT22;20737;49.908;8.126;2022-09-13T02:03:07;12.60;99.90
34492;DHT22;20737;49.908;8.126;2022-09-13T02:05:39;12.60;99.90
34492;DHT22;20737;49.908;8.126;2022-09-13T02:08:10;12.60;99.90
34492;DHT22;20737;49.908;8.126;2022-09-13T02:10:41;12.60;99.90
34492;DHT22;20737;49.908;8.126;2022-09-13T02:13:13;12.60;99.90
34492;DHT22;20737;49.908;8.126;2022-09-13T02:15:45;12.70;99.90
34492;DHT22;20737;49.908;8.126;2022-09-13T02:18:17;12.70;99.90
34492;DHT22;20737;49.908;8.126;2022-09-13T02:20:48;12.70;99.90
34492;DHT22;20737;49.908;8.126;2022-09-13T02:23:19;12.70;99.90
34492;DHT22;20737;49.908;8.126;2022-09-13T02:25:50;12.80;99.90
34492;DHT22;20737;49.908;8.126;2022-09-13T02:28:22;12.80;99.90
34492;DHT22;20737;49.908;8.126;2022-09-13T02:30:53;12.80;99.90
34492;DHT22;20737;49.908;8.126;2022-09-13T02:33:28;12.90;99.90
34492;DHT22;20737;49.908;8.126;2022-09-13T02:35:59;12.90;99.90
34492;DHT22;20737;49.908;8.126;2022-09-13T02:38:30;13.00;99.90
34492;DHT22;20737;49.908;8.126;2022-09-13T02:41:04;12.90;99.90
34492;DHT22;20737;49.908;8.126;2022-09-13T02:43:34;12.90;99.90
34492;DHT22;20737;49.908;8.126;2022-09-13T02:46:11;13.00;99.90
34492;DHT22;20737;49.908;8.126;2022-09-13T02:48:51;12.90;99.90
34492;DHT22;20737;49.908;8.126;2022-09-13T02:51:28;12.90;99.90
34492;DHT22;20737;49.908;8.126;2022-09-13T02:54:04;12.80;99.90
34492;DHT22;20737;49.908;8.126;2022-09-13T02:56:41;12.80;99.90
34492;DHT22;20737;49.908;8.126;2022-09-13T02:59:13;12.80;99.90
34492;DHT22;20737;49.908;8.126;2022-09-13T03:01:46;12.90;99.90
34492;DHT22;20737;49.908;8.126;2022-09-13T03:04:14;12.90;99.90
34492;DHT22;20737;49.908;8.126;2022-09-13T03:06:41;13.00;99.90
34492;DHT22;20737;49.908;8.126;2022-09-13T03:09:09;13.00;99.90
34492;DHT22;20737;49.908;8.126;2022-09-13T03:11:45;13.00;99.90
34492;DHT22;20737;49.908;8.126;2022-09-13T03:14:30;13.10;99.90
34492;DHT22;20737;49.908;8.126;2022-09-13T03:17:10;13.20;99.90
34492;DHT22;20737;49.908;8.126;2022-09-13T03:19:52;13.20;99.90
34492;DHT22;20737;49.908;8.126;2022-09-13T03:25:28;13.30;99.90
34492;DHT22;20737;49.908;8.126;2022-09-13T03:28:05;13.30;99.90
34492;DHT22;20737;49.908;8.126;2022-09-13T03:30:37;13.30;99.90
34492;DHT22;20737;49.908;8.126;2022-09-13T03:33:14;13.30;99.90
34492;DHT22;20737;49.908;8.126;2022-09-13T03:35:51;13.30;99.90
34492;DHT22;20737;49.908;8.126;2022-09-13T03:38:25;13.30;99.90
34492;DHT22;20737;49.908;8.126;2022-09-13T03:40:59;13.30;99.90
34492;DHT22;20737;49.908;8.126;2022-09-13T03:43:32;13.40;99.90
34492;DHT22;20737;49.908;8.126;2022-09-13T03:46:04;13.40;99.90
34492;DHT22;20737;49.908;8.126;2022-09-13T03:48:34;13.40;99.90
34492;DHT22;20737;49.908;8.126;2022-09-13T03:51:04;13.40;99.90
34492;DHT22;20737;49.908;8.126;2022-09-13T03:53:32;13.40;99.90
34492;DHT22;20737;49.908;8.126;2022-09-13T03:56:11;13.40;99.90
34492;DHT22;20737;49.908;8.126;2022-09-13T03:58:38;13.50;99.90
34492;DHT22;20737;49.908;8.126;2022-09-13T04:01:05;13.40;99.90
34492;DHT22;20737;49.908;8.126;2022-09-13T04:03:32;13.40;99.90
34492;DHT22;20737;49.908;8.126;2022-09-13T04:05:58;13.40;99.90
34492;DHT22;20737;49.908;8.126;2022-09-13T04:08:26;13.40;99.90
34492;DHT22;20737;49.908;8.126;2022-09-13T04:10:53;13.40;99.90
34492;DHT22;20737;49.908;8.126;2022-09-13T04:13:20;13.40;99.90
34492;DHT22;20737;49.908;8.126;2022-09-13T04:15:47;13.40;99.90
34492;DHT22;20737;49.908;8.126;2022-09-13T04:18:14;13.40;99.90
34492;DHT22;20737;49.908;8.126;2022-09-13T04:20:41;13.40;99.90
34492;DHT22;20737;49.908;8.126;2022-09-13T04:23:08;13.40;99.90
34492;DHT22;20737;49.908;8.126;2022-09-13T04:25:38;13.40;99.90
34492;DHT22;20737;49.908;8.126;2022-09-13T04:28:05;13.50;99.90
34492;DHT22;20737;49.908;8.126;2022-09-13T04:30:32;13.50;99.90
34492;DHT22;20737;49.908;8.126;2022-09-13T04:32:59;13.40;99.90
34492;DHT22;20737;49.908;8.126;2022-09-13T04:35:26;13.50;99.90
34492;DHT22;20737;49.908;8.126;2022-09-13T04:37:54;13.40;99.90
34492;DHT22;20737;49.908;8.126;2022-09-13T04:40:22;13.40;99.90
34492;DHT22;20737;49.908;8.126;2022-09-13T04:42:50;13.50;99.90
34492;DHT22;20737;49.908;8.126;2022-09-13T04:45:18;13.40;99.90
34492;DHT22;20737;49.908;8.126;2022-09-13T04:47:50;13.40;99.90
34492;DHT22;20737;49.908;8.126;2022-09-13T04:50:17;13.40;99.90
34492;DHT22;20737;49.908;8.126;2022-09-13T04:52:45;13.40;99.90
34492;DHT22;20737;49.908;8.126;2022-09-13T04:55:11;13.40;99.90
34492;DHT22;20737;49.908;8.126;2022-09-13T04:57:38;13.40;99.90
34492;DHT22;20737;49.908;8.126;2022-09-13T05:00:08;13.40;99.90
34492;DHT22;20737;49.908;8.126;2022-09-13T05:02:35;13.50;99.90
34492;DHT22;20737;49.908;8.126;2022-09-13T05:05:02;13.40;99.90
34492;DHT22;20737;49.908;8.126;2022-09-13T05:07:29;13.40;99.90
34492;DHT22;20737;49.908;8.126;2022-09-13T05:09:56;13.50;99.90
34492;DHT22;20737;49.908;8.126;2022-09-13T05:12:22;13.60;99.90
34492;DHT22;20737;49.908;8.126;2022-09-13T05:14:49;13.60;99.90
34492;DHT22;20737;49.908;8.126;2022-09-13T05:17:17;13.60;99.90
34492;DHT22;20737;49.908;8.126;2022-09-13T05:19:45;13.60;99.90
34492;DHT22;20737;49.908;8.126;2022-09-13T05:22:12;13.70;99.90
34492;DHT22;20737;49.908;8.126;2022-09-13T05:24:38;13.80;99.90
34492;DHT22;20737;49.908;8.126;2022-09-13T05:27:05;13.80;99.90
34492;DHT22;20737;49.908;8.126;2022-09-13T05:29:33;13.80;99.90
34492;DHT22;20737;49.908;8.126;2022-09-13T05:32:00;13.80;99.90
34492;DHT22;20737;49.908;8.126;2022-09-13T05:34:28;13.80;99.90
34492;DHT22;20737;49.908;8.126;2022-09-13T05:36:55;13.80;99.90
34492;DHT22;20737;49.908;8.126;2022-09-13T05:39:21;13.90;99.90
34492;DHT22;20737;49.908;8.126;2022-09-13T05:41:48;13.90;99.90
34492;DHT22;20737;49.908;8.126;2022-09-13T05:44:15;14.00;99.90
34492;DHT22;20737;49.908;8.126;2022-09-13T05:46:41;14.00;99.90
34492;DHT22;20737;49.908;8.126;2022-09-13T05:49:12;14.00;99.90
34492;DHT22;20737;49.908;8.126;2022-09-13T05:51:40;14.00;99.90
34492;DHT22;20737;49.908;8.126;2022-09-13T05:54:10;14.00;99.90
34492;DHT22;20737;49.908;8.126;2022-09-13T05:56:37;14.00;99.90
34492;DHT22;20737;49.908;8.126;2022-09-13T05:59:03;14.10;99.90
34492;DHT22;20737;49.908;8.126;2022-09-13T06:01:30;14.10;99.90
34492;DHT22;20737;49.908;8.126;2022-09-13T06:03:58;14.20;99.90
34492;DHT22;20737;49.908;8.126;2022-09-13T06:06:25;14.20;99.90
34492;DHT22;20737;49.908;8.126;2022-09-13T06:08:56;14.20;99.90
34492;DHT22;20737;49.908;8.126;2022-09-13T06:11:24;14.20;99.90
34492;DHT22;20737;49.908;8.126;2022-09-13T06:13:51;14.20;99.90
34492;DHT22;20737;49.908;8.126;2022-09-13T06:16:18;14.30;99.90
34492;DHT22;20737;49.908;8.126;2022-09-13T06:18:45;14.50;99.90
34492;DHT22;20737;49.908;8.126;2022-09-13T06:21:14;14.60;99.90
34492;DHT22;20737;49.908;8.126;2022-09-13T06:23:42;14.60;99.90
34492;DHT22;20737;49.908;8.126;2022-09-13T06:26:13;14.70;99.90
34492;DHT22;20737;49.908;8.126;2022-09-13T06:28:41;14.70;99.90
34492;DHT22;20737;49.908;8.126;2022-09-13T06:31:09;14.80;99.90
34492;DHT22;20737;49.908;8.126;2022-09-13T06:33:38;14.90;99.90
34492;DHT22;20737;49.908;8.126;2022-09-13T06:36:07;14.90;99.90
34492;DHT22;20737;49.908;8.126;2022-09-13T06:38:34;14.90;99.90
34492;DHT22;20737;49.908;8.126;2022-09-13T06:41:01;15.00;99.90
34492;DHT22;20737;49.908;8.126;2022-09-13T06:43:30;15.00;99.90
34492;DHT22;20737;49.908;8.126;2022-09-13T06:46:01;15.00;99.90
34492;DHT22;20737;49.908;8.126;2022-09-13T06:48:30;15.00;99.90
34492;DHT22;20737;49.908;8.126;2022-09-13T06:50:59;15.10;99.90
34492;DHT22;20737;49.908;8.126;2022-09-13T06:53:26;15.10;99.90
34492;DHT22;20737;49.908;8.126;2022-09-13T06:56:02;15.10;99.90
34492;DHT22;20737;49.908;8.126;2022-09-13T06:58:31;15.10;99.90
34492;DHT22;20737;49.908;8.126;2022-09-13T07:01:11;15.10;99.90
34492;DHT22;20737;49.908;8.126;2022-09-13T07:03:40;15.20;99.90
34492;DHT22;20737;49.908;8.126;2022-09-13T07:06:09;15.20;99.90
34492;DHT22;20737;49.908;8.126;2022-09-13T07:08:37;15.30;99.90
34492;DHT22;20737;49.908;8.126;2022-09-13T07:11:04;15.30;99.90
34492;DHT22;20737;49.908;8.126;2022-09-13T07:13:32;15.30;99.90
34492;DHT22;20737;49.908;8.126;2022-09-13T07:16:01;15.40;99.90
34492;DHT22;20737;49.908;8.126;2022-09-13T07:18:28;15.40;99.90
34492;DHT22;20737;49.908;8.126;2022-09-13T07:20:58;15.40;99.90
34492;DHT22;20737;49.908;8.126;2022-09-13T07:23:26;15.50;99.90
34492;DHT22;20737;49.908;8.126;2022-09-13T07:25:53;15.40;99.90
34492;DHT22;20737;49.908;8.126;2022-09-13T07:28:20;15.50;99.90
34492;DHT22;20737;49.908;8.126;2022-09-13T07:30:48;15.40;99.90
34492;DHT22;20737;49.908;8.126;2022-09-13T07:33:15;15.40;99.90
34492;DHT22;20737;49.908;8.126;2022-09-13T07:35:42;15.50;99.90
34492;DHT22;20737;49.908;8.126;2022-09-13T07:38:12;15.50;99.90
34492;DHT22;20737;49.908;8.126;2022-09-13T07:40:38;15.60;99.90
34492;DHT22;20737;49.908;8.126;2022-09-13T07:43:05;15.70;99.90
34492;DHT22;20737;49.908;8.126;2022-09-13T07:45:32;15.80;99.90
34492;DHT22;20737;49.908;8.126;2022-09-13T07:48:00;15.80;99.90
34492;DHT22;20737;49.908;8.126;2022-09-13T07:50:27;15.80;99.90
34492;DHT22;20737;49.908;8.126;2022-09-13T07:52:53;15.90;99.90
34492;DHT22;20737;49.908;8.126;2022-09-13T07:55:20;15.90;99.90
34492;DHT22;20737;49.908;8.126;2022-09-13T07:57:47;16.10;99.90
34492;DHT22;20737;49.908;8.126;2022-09-13T08:00:14;16.20;99.90
34492;DHT22;20737;49.908;8.126;2022-09-13T08:02:41;16.40;99.90
34492;DHT22;20737;49.908;8.126;2022-09-13T08:05:09;16.70;99.90
34492;DHT22;20737;49.908;8.126;2022-09-13T08:07:36;17.10;99.90
34492;DHT22;20737;49.908;8.126;2022-09-13T08:10:03;17.30;99.90
34492;DHT22;20737;49.908;8.126;2022-09-13T08:12:29;17.40;99.90
34492;DHT22;20737;49.908;8.126;2022-09-13T08:14:56;17.40;99.90
34492;DHT22;20737;49.908;8.126;2022-09-13T08:17:23;17.60;99.90
34492;DHT22;20737;49.908;8.126;2022-09-13T08:19:49;17.80;99.90
34492;DHT22;20737;49.908;8.126;2022-09-13T08:22:17;17.90;99.90
34492;DHT22;20737;49.908;8.126;2022-09-13T08:24:44;17.80;99.90
34492;DHT22;20737;49.908;8.126;2022-09-13T08:27:11;17.70;99.90
34492;DHT22;20737;49.908;8.126;2022-09-13T08:29:38;17.70;99.90
34492;DHT22;20737;49.908;8.126;2022-09-13T08:32:05;17.70;99.90
34492;DHT22;20737;49.908;8.126;2022-09-13T08:34:31;17.60;99.90
34492;DHT22;20737;49.908;8.126;2022-09-13T08:36:58;17.40;99.90
34492;DHT22;20737;49.908;8.126;2022-09-13T08:39:26;17.30;99.90
34492;DHT22;20737;49.908;8.126;2022-09-13T08:42:05;17.30;99.90
34492;DHT22;20737;49.908;8.126;2022-09-13T08:44:44;17.10;99.90
34492;DHT22;20737;49.908;8.126;2022-09-13T08:47:27;17.00;99.90
34492;DHT22;20737;49.908;8.126;2022-09-13T08:50:00;17.00;99.90
34492;DHT22;20737;49.908;8.126;2022-09-13T08:52:32;16.90;99.90
34492;DHT22;20737;49.908;8.126;2022-09-13T08:55:16;16.90;99.90
34492;DHT22;20737;49.908;8.126;2022-09-13T08:57:46;17.00;99.90
34492;DHT22;20737;49.908;8.126;2022-09-13T09:00:19;17.20;99.90
34492;DHT22;20737;49.908;8.126;2022-09-13T09:02:57;17.30;99.90
34492;DHT22;20737;49.908;8.126;2022-09-13T09:05:28;17.50;99.90
34492;DHT22;20737;49.908;8.126;2022-09-13T09:07:58;17.60;99.90
34492;DHT22;20737;49.908;8.126;2022-09-13T09:10:30;17.60;99.90
34492;DHT22;20737;49.908;8.126;2022-09-13T09:13:00;17.70;99.90
34492;DHT22;20737;49.908;8.126;2022-09-13T09:15:31;17.90;99.90
34492;DHT22;20737;49.908;8.126;2022-09-13T09:18:11;18.30;99.90
34492;DHT22;20737;49.908;8.126;2022-09-13T09:20:40;18.60;99.90
34492;DHT22;20737;49.908;8.126;2022-09-13T09:23:13;18.90;99.90
34492;DHT22;20737;49.908;8.126;2022-09-13T09:25:41;19.20;99.90
34492;DHT22;20737;49.908;8.126;2022-09-13T09:28:13;19.40;99.90
34492;DHT22;20737;49.908;8.126;2022-09-13T09:30:45;19.50;99.90
34492;DHT22;20737;49.908;8.126;2022-09-13T09:33:37;19.80;99.90
34492;DHT22;20737;49.908;8.126;2022-09-13T09:36:13;20.00;99.90
34492;DHT22;20737;49.908;8.126;2022-09-13T09:38:43;19.90;99.90
34492;DHT22;20737;49.908;8.126;2022-09-13T09:41:22;19.50;99.90
34492;DHT22;20737;49.908;8.126;2022-09-13T09:43:57;19.30;99.90
34492;DHT22;20737;49.908;8.126;2022-09-13T09:46:27;19.30;99.90
34492;DHT22;20737;49.908;8.126;2022-09-13T09:49:00;19.20;99.90
34492;DHT22;20737;49.908;8.126;2022-09-13T09:51:28;19.20;99.90
34492;DHT22;20737;49.908;8.126;2022-09-13T09:54:00;19.20;99.90
34492;DHT22;20737;49.908;8.126;2022-09-13T09:56:33;19.30;99.90
34492;DHT22;20737;49.908;8.126;2022-09-13T09:59:01;19.30;99.90
34492;DHT22;20737;49.908;8.126;2022-09-13T10:01:29;19.50;99.90
34492;DHT22;20737;49.908;8.126;2022-09-13T10:04:05;19.70;99.90
34492;DHT22;20737;49.908;8.126;2022-09-13T10:06:41;19.70;99.90
34492;DHT22;20737;49.908;8.126;2022-09-13T10:09:15;19.60;99.90
34492;DHT22;20737;49.908;8.126;2022-09-13T10:11:47;19.70;99.90
34492;DHT22;20737;49.908;8.126;2022-09-13T10:14:35;19.50;99.90
34492;DHT22;20737;49.908;8.126;2022-09-13T10:17:13;19.50;99.90
34492;DHT22;20737;49.908;8.126;2022-09-13T10:19:41;19.40;99.90
34492;DHT22;20737;49.908;8.126;2022-09-13T10:22:16;19.30;99.90
34492;DHT22;20737;49.908;8.126;2022-09-13T10:24:43;19.20;99.90
34492;DHT22;20737;49.908;8.126;2022-09-13T10:27:21;19.20;99.90
34492;DHT22;20737;49.908;8.126;2022-09-13T10:29:50;19.00;99.90
34492;DHT22;20737;49.908;8.126;2022-09-13T10:32:19;19.00;99.90
34492;DHT22;20737;49.908;8.126;2022-09-13T10:34:47;19.00;99.90
34492;DHT22;20737;49.908;8.126;2022-09-13T10:37:17;19.10;99.90
34492;DHT22;20737;49.908;8.126;2022-09-13T10:39:55;19.20;99.90
34492;DHT22;20737;49.908;8.126;2022-09-13T10:42:26;19.30;99.90
34492;DHT22;20737;49.908;8.126;2022-09-13T10:44:56;19.60;99.90
34492;DHT22;20737;49.908;8.126;2022-09-13T10:47:26;19.80;99.90
34492;DHT22;20737;49.908;8.126;2022-09-13T10:50:11;20.30;99.90
34492;DHT22;20737;49.908;8.126;2022-09-13T10:52:42;20.50;99.90
34492;DHT22;20737;49.908;8.126;2022-09-13T10:55:41;20.40;99.90
34492;DHT22;20737;49.908;8.126;2022-09-13T10:58:18;20.20;99.90
34492;DHT22;20737;49.908;8.126;2022-09-13T11:06:49;19.60;99.90
34492;DHT22;20737;49.908;8.126;2022-09-13T11:09:23;19.50;99.90
34492;DHT22;20737;49.908;8.126;2022-09-13T11:11:54;19.50;99.90
34492;DHT22;20737;49.908;8.126;2022-09-13T11:14:41;19.60;99.90
34492;DHT22;20737;49.908;8.126;2022-09-13T11:17:17;19.80;99.90
34492;DHT22;20737;49.908;8.126;2022-09-13T11:19:59;19.80;99.90
34492;DHT22;20737;49.908;8.126;2022-09-13T11:22:57;19.80;99.90
34492;DHT22;20737;49.908;8.126;2022-09-13T11:25:43;19.90;99.90
34492;DHT22;20737;49.908;8.126;2022-09-13T11:28:19;19.90;99.90
34492;DHT22;20737;49.908;8.126;2022-09-13T11:31:08;20.00;99.90
34492;DHT22;20737;49.908;8.126;2022-09-13T11:33:49;20.00;99.90
34492;DHT22;20737;49.908;8.126;2022-09-13T11:36:45;20.10;99.90
34492;DHT22;20737;49.908;8.126;2022-09-13T11:39:23;20.10;99.90
34492;DHT22;20737;49.908;8.126;2022-09-13T11:42:04;20.10;99.90
34492;DHT22;20737;49.908;8.126;2022-09-13T11:44:46;20.10;99.90
34492;DHT22;20737;49.908;8.126;2022-09-13T11:47:26;20.20;99.90
34492;DHT22;20737;49.908;8.126;2022-09-13T11:50:06;20.30;99.90
34492;DHT22;20737;49.908;8.126;2022-09-13T11:52:49;20.40;99.90
34492;DHT22;20737;49.908;8.126;2022-09-13T11:55:23;20.70;99.90
34492;DHT22;20737;49.908;8.126;2022-09-13T11:57:52;20.90;99.90
34492;DHT22;20737;49.908;8.126;2022-09-13T12:00:22;21.10;99.90
34492;DHT22;20737;49.908;8.126;2022-09-13T12:02:58;21.20;99.90
34492;DHT22;20737;49.908;8.126;2022-09-13T12:05:29;21.20;99.90
34492;DHT22;20737;49.908;8.126;2022-09-13T12:08:01;21.30;99.90
34492;DHT22;20737;49.908;8.126;2022-09-13T12:10:36;21.20;99.90
34492;DHT22;20737;49.908;8.126;2022-09-13T12:13:08;21.10;99.90
34492;DHT22;20737;49.908;8.126;2022-09-13T12:15:38;21.00;99.90
34492;DHT22;20737;49.908;8.126;2022-09-13T12:18:11;20.90;99.90
34492;DHT22;20737;49.908;8.126;2022-09-13T12:20:43;20.90;99.90
34492;DHT22;20737;49.908;8.126;2022-09-13T12:23:19;20.90;99.90
34492;DHT22;20737;49.908;8.126;2022-09-13T12:25:52;21.10;99.90
34492;DHT22;20737;49.908;8.126;2022-09-13T12:28:23;21.20;99.90
34492;DHT22;20737;49.908;8.126;2022-09-13T12:30:55;21.30;99.90
34492;DHT22;20737;49.908;8.126;2022-09-13T12:33:24;21.50;99.90
34492;DHT22;20737;49.908;8.126;2022-09-13T12:36:19;21.60;99.90
34492;DHT22;20737;49.908;8.126;2022-09-13T12:39:15;21.90;99.90
34492;DHT22;20737;49.908;8.126;2022-09-13T12:41:59;22.00;99.90
34492;DHT22;20737;49.908;8.126;2022-09-13T12:44:40;21.90;99.90
34492;DHT22;20737;49.908;8.126;2022-09-13T12:47:39;21.90;99.90
34492;DHT22;20737;49.908;8.126;2022-09-13T12:53:14;22.10;99.90
34492;DHT22;20737;49.908;8.126;2022-09-13T12:56:09;22.00;99.90
34492;DHT22;20737;49.908;8.126;2022-09-13T12:59:03;22.00;99.90
34492;DHT22;20737;49.908;8.126;2022-09-13T13:01:36;22.00;99.90
34492;DHT22;20737;49.908;8.126;2022-09-13T13:04:09;21.90;99.90
34492;DHT22;20737;49.908;8.126;2022-09-13T13:06:46;21.70;99.90
34492;DHT22;20737;49.908;8.126;2022-09-13T13:09:21;21.70;99.90
34492;DHT22;20737;49.908;8.126;2022-09-13T13:11:49;21.60;99.90
34492;DHT22;20737;49.908;8.126;2022-09-13T13:17:45;21.40;99.90
34492;DHT22;20737;49.908;8.126;2022-09-13T13:20:41;21.60;99.90
34492;DHT22;20737;49.908;8.126;2022-09-13T13:23:18;21.40;99.90
34492;DHT22;20737;49.908;8.126;2022-09-13T13:26:07;21.50;99.90
34492;DHT22;20737;49.908;8.126;2022-09-13T13:31:41;21.70;99.90
34492;DHT22;20737;49.908;8.126;2022-09-13T13:34:34;21.70;99.90
34492;DHT22;20737;49.908;8.126;2022-09-13T13:37:20;21.60;99.90
34492;DHT22;20737;49.908;8.126;2022-09-13T13:43:24;22.40;99.90
34492;DHT22;20737;49.908;8.126;2022-09-13T13:46:28;22.40;99.90
34492;DHT22;20737;49.908;8.126;2022-09-13T13:48:56;22.50;99.90
34492;DHT22;20737;49.908;8.126;2022-09-13T13:51:42;22.50;99.90
34492;DHT22;20737;49.908;8.126;2022-09-13T13:54:28;22.70;99.90
34492;DHT22;20737;49.908;8.126;2022-09-13T13:56:56;22.70;99.90
34492;DHT22;20737;49.908;8.126;2022-09-13T13:59:26;22.60;99.90
34492;DHT22;20737;49.908;8.126;2022-09-13T14:01:57;22.60;99.90
34492;DHT22;20737;49.908;8.126;2022-09-13T14:04:57;22.50;99.90
34492;DHT22;20737;49.908;8.126;2022-09-13T14:10:30;22.40;99.90
34492;DHT22;20737;49.908;8.126;2022-09-13T14:13:18;22.50;99.90
34492;DHT22;20737;49.908;8.126;2022-09-13T14:15:54;22.40;99.90
34492;DHT22;20737;49.908;8.126;2022-09-13T14:18:49;22.30;99.90
34492;DHT22;20737;49.908;8.126;2022-09-13T14:21:20;22.30;99.90
34492;DHT22;20737;49.908;8.126;2022-09-13T14:23:48;22.20;99.90
34492;DHT22;20737;49.908;8.126;2022-09-13T14:26:15;22.30;99.90
34492;DHT22;20737;49.908;8.126;2022-09-13T14:28:42;22.20;99.90
34492;DHT22;20737;49.908;8.126;2022-09-13T14:31:16;22.20;99.90
34492;DHT22;20737;49.908;8.126;2022-09-13T14:33:46;22.00;99.90
34492;DHT22;20737;49.908;8.126;2022-09-13T14:36:17;22.00;99.90
34492;DHT22;20737;49.908;8.126;2022-09-13T14:38:47;21.90;99.90
34492;DHT22;20737;49.908;8.126;2022-09-13T14:41:16;22.10;99.90
34492;DHT22;20737;49.908;8.126;2022-09-13T14:43:44;22.00;99.90
34492;DHT22;20737;49.908;8.126;2022-09-13T14:46:16;22.10;99.90
34492;DHT22;20737;49.908;8.126;2022-09-13T14:48:47;22.00;99.90
34492;DHT22;20737;49.908;8.126;2022-09-13T14:51:19;21.90;99.90
34492;DHT22;20737;49.908;8.126;2022-09-13T14:53:49;21.90;99.90
34492;DHT22;20737;49.908;8.126;2022-09-13T14:56:19;22.00;99.90
34492;DHT22;20737;49.908;8.126;2022-09-13T14:58:52;21.90;99.90
34492;DHT22;20737;49.908;8.126;2022-09-13T15:01:26;21.90;99.90
34492;DHT22;20737;49.908;8.126;2022-09-13T15:03:55;21.80;99.90
34492;DHT22;20737;49.908;8.126;2022-09-13T15:06:26;21.80;99.90
34492;DHT22;20737;49.908;8.126;2022-09-13T15:08:56;21.70;99.90
34492;DHT22;20737;49.908;8.126;2022-09-13T15:11:32;21.60;99.90
34492;DHT22;20737;49.908;8.126;2022-09-13T15:14:17;21.60;99.90
34492;DHT22;20737;49.908;8.126;2022-09-13T15:16:49;21.50;99.90
34492;DHT22;20737;49.908;8.126;2022-09-13T15:19:38;21.50;99.90
34492;DHT22;20737;49.908;8.126;2022-09-13T15:22:12;21.40;99.90
34492;DHT22;20737;49.908;8.126;2022-09-13T15:24:44;21.40;99.90
34492;DHT22;20737;49.908;8.126;2022-09-13T15:27:26;21.30;99.90
34492;DHT22;20737;49.908;8.126;2022-09-13T15:29:55;21.30;99.90
34492;DHT22;20737;49.908;8.126;2022-09-13T15:32:29;21.30;99.90
34492;DHT22;20737;49.908;8.126;2022-09-13T15:34:58;21.30;99.90
34492;DHT22;20737;49.908;8.126;2022-09-13T15:37:34;21.30;99.90
34492;DHT22;20737;49.908;8.126;2022-09-13T15:40:16;21.20;99.90
34492;DHT22;20737;49.908;8.126;2022-09-13T15:42:48;21.10;99.90
34492;DHT22;20737;49.908;8.126;2022-09-13T15:45:15;21.00;99.90
34492;DHT22;20737;49.908;8.126;2022-09-13T15:47:45;21.10;99.90
34492;DHT22;20737;49.908;8.126;2022-09-13T15:50:21;21.10;99.90
34492;DHT22;20737;49.908;8.126;2022-09-13T15:52:49;21.00;99.90
34492;DHT22;20737;49.908;8.126;2022-09-13T15:55:16;21.00;99.90
34492;DHT22;20737;49.908;8.126;2022-09-13T15:57:43;21.00;99.90
34492;DHT22;20737;49.908;8.126;2022-09-13T16:00:14;20.90;99.90
34492;DHT22;20737;49.908;8.126;2022-09-13T16:02:42;20.90;99.90
34492;DHT22;20737;49.908;8.126;2022-09-13T16:05:10;20.90;99.90
34492;DHT22;20737;49.908;8.126;2022-09-13T16:07:38;20.90;99.90
34492;DHT22;20737;49.908;8.126;2022-09-13T16:10:10;20.90;99.90
34492;DHT22;20737;49.908;8.126;2022-09-13T16:12:38;20.90;99.90
34492;DHT22;20737;49.908;8.126;2022-09-13T16:15:09;20.80;99.90
34492;DHT22;20737;49.908;8.126;2022-09-13T16:17:36;20.80;99.90
34492;DHT22;20737;49.908;8.126;2022-09-13T16:20:04;20.80;99.90
34492;DHT22;20737;49.908;8.126;2022-09-13T16:22:33;20.70;99.90
34492;DHT22;20737;49.908;8.126;2022-09-13T16:25:01;20.80;99.90
34492;DHT22;20737;49.908;8.126;2022-09-13T16:27:28;20.70;99.90